createdAt,value
2023-04-16T00:00:44.392Z,966.77
2023-04-16T00:01:44.559Z,966.76
2023-04-16T00:02:44.483Z,966.76
2023-04-16T00:03:44.642Z,966.74
2023-04-16T00:04:44.544Z,966.77
2023-04-16T00:05:44.377Z,966.76
2023-04-16T00:06:44.390Z,966.77
2023-04-16T00:07:44.330Z,966.76
2023-04-16T00:08:44.410Z,966.75
2023-04-16T00:09:44.287Z,966.73
2023-04-16T00:10:44.483Z,966.74
2023-04-16T00:11:44.272Z,966.74
2023-04-16T00:12:44.339Z,966.72
2023-04-16T00:13:44.248Z,966.74
2023-04-16T00:14:44.236Z,966.79
2023-04-16T00:15:44.180Z,966.76
2023-04-16T00:16:44.486Z,966.75
2023-04-16T00:17:44.187Z,966.82
2023-04-16T00:18:44.190Z,966.77
2023-04-16T00:19:44.152Z,966.77
2023-04-16T00:20:44.195Z,966.77
2023-04-16T00:21:44.162Z,966.79
2023-04-16T00:22:44.206Z,966.78
2023-04-16T00:23:44.101Z,966.79
2023-04-16T00:24:44.131Z,966.79
2023-04-16T00:25:44.073Z,966.79
2023-04-16T00:26:44.170Z,966.78
2023-04-16T00:27:44.037Z,966.79
2023-04-16T00:28:44.148Z,966.77
2023-04-16T00:29:44.060Z,966.79
2023-04-16T00:30:44.184Z,966.78
2023-04-16T00:31:44.001Z,966.82
2023-04-16T00:32:44.108Z,966.81
2023-04-16T00:33:43.997Z,966.80
2023-04-16T00:34:44.012Z,966.83
2023-04-16T00:35:44.139Z,966.81
2023-04-16T00:36:43.915Z,966.82
2023-04-16T00:37:44.116Z,966.77
2023-04-16T00:38:43.910Z,966.82
2023-04-16T00:39:43.984Z,966.84
2023-04-16T00:40:44.033Z,966.78
2023-04-16T00:41:43.891Z,966.81
2023-04-16T00:42:43.950Z,966.83
2023-04-16T00:43:43.882Z,966.82
2023-04-16T00:44:43.893Z,966.82
2023-04-16T00:45:43.832Z,966.82
2023-04-16T00:46:44.048Z,966.83
2023-04-16T00:47:43.829Z,966.85
2023-04-16T00:48:43.918Z,966.83
2023-04-16T00:49:43.773Z,966.82
2023-04-16T00:50:43.825Z,966.83
2023-04-16T00:51:43.734Z,966.83
2023-04-16T00:52:43.816Z,966.81
2023-04-16T00:53:43.700Z,966.83
2023-04-16T00:54:43.827Z,966.83
2023-04-16T00:55:43.709Z,966.87
2023-04-16T00:56:43.791Z,966.86
2023-04-16T00:57:43.642Z,966.86
2023-04-16T00:58:43.848Z,966.88
2023-04-16T00:59:43.633Z,966.89
2023-04-16T01:00:43.727Z,966.90
2023-04-16T01:01:43.682Z,966.84
2023-04-16T01:02:43.855Z,966.86
2023-04-16T01:03:43.799Z,966.89
2023-04-16T01:04:43.814Z,966.88
2023-04-16T01:05:43.552Z,966.88
2023-04-16T01:06:43.756Z,966.88
2023-04-16T01:07:43.506Z,966.89
2023-04-16T01:08:43.620Z,966.90
2023-04-16T01:09:43.493Z,966.92
2023-04-16T01:10:43.579Z,966.93
2023-04-16T01:11:43.541Z,966.90
2023-04-16T01:12:43.480Z,966.92
2023-04-16T01:13:43.548Z,966.92
2023-04-16T01:14:43.826Z,966.94
2023-04-16T01:15:43.504Z,966.92
2023-04-16T01:16:43.595Z,966.93
2023-04-16T01:17:43.400Z,966.96
2023-04-16T01:18:43.593Z,966.91
2023-04-16T01:19:43.389Z,966.92
2023-04-16T01:20:43.508Z,966.95
2023-04-16T01:21:43.379Z,966.96
2023-04-16T01:22:43.416Z,966.93
2023-04-16T01:23:43.391Z,966.97
2023-04-16T01:24:43.521Z,966.97
2023-04-16T01:25:50.542Z,966.97
2023-04-16T01:26:43.496Z,966.97
2023-04-16T01:27:43.292Z,966.97
2023-04-16T01:28:43.458Z,966.99
2023-04-16T01:29:43.256Z,966.99
2023-04-16T01:30:43.374Z,967.03
2023-04-16T01:31:43.303Z,967.02
2023-04-16T01:32:43.476Z,967.00
2023-04-16T01:33:43.233Z,967.00
2023-04-16T01:34:43.288Z,967.00
2023-04-16T01:35:43.174Z,966.99
2023-04-16T01:36:43.306Z,966.97
2023-04-16T01:37:43.174Z,966.99
2023-04-16T01:38:43.227Z,966.99
2023-04-16T01:39:43.133Z,967.05
2023-04-16T01:40:43.232Z,967.00
2023-04-16T01:41:43.093Z,967.00
2023-04-16T01:42:43.244Z,966.99
2023-04-16T01:43:43.086Z,967.01
2023-04-16T01:44:43.357Z,967.00
2023-04-16T01:45:43.045Z,966.96
2023-04-16T01:46:43.341Z,966.98
2023-04-16T01:47:43.191Z,966.98
2023-04-16T01:48:43.073Z,966.99
2023-04-16T01:49:43.172Z,967.04
2023-04-16T01:50:43.006Z,966.98
2023-04-16T01:51:43.090Z,967.02
2023-04-16T01:52:42.980Z,967.01
2023-04-16T01:53:43.138Z,967.02
2023-04-16T01:54:42.991Z,967.01
2023-04-16T01:55:43.010Z,966.99
2023-04-16T01:56:42.949Z,966.97
2023-04-16T01:57:43.047Z,966.99
2023-04-16T01:58:42.903Z,967.00
2023-04-16T01:59:43.091Z,967.00
2023-04-16T02:00:42.897Z,967.02
2023-04-16T02:01:43.006Z,967.01
2023-04-16T02:02:43.061Z,966.97
2023-04-16T02:03:43.044Z,966.98
2023-04-16T02:04:42.831Z,966.99
2023-04-16T02:05:42.984Z,966.97
2023-04-16T02:06:42.834Z,967.02
2023-04-16T02:07:42.891Z,967.00
2023-04-16T02:08:42.922Z,966.97
2023-04-16T02:09:42.808Z,966.98
2023-04-16T02:10:42.939Z,966.97
2023-04-16T02:11:42.791Z,966.99
2023-04-16T02:12:42.893Z,966.95
2023-04-16T02:13:42.821Z,966.96
2023-04-16T02:14:42.710Z,966.96
2023-04-16T02:15:42.772Z,966.96
2023-04-16T02:16:42.681Z,966.95
2023-04-16T02:17:42.853Z,967.00
2023-04-16T02:18:42.809Z,966.98
2023-04-16T02:19:42.606Z,966.99
2023-04-16T02:20:42.797Z,966.97
2023-04-16T02:21:42.623Z,967.00
2023-04-16T02:22:42.747Z,966.98
2023-04-16T02:23:42.700Z,967.00
2023-04-16T02:24:42.604Z,967.00
2023-04-16T02:25:42.601Z,966.98
2023-04-16T02:26:42.571Z,967.04
2023-04-16T02:27:42.718Z,967.02
2023-04-16T02:28:42.560Z,967.00
2023-04-16T02:29:42.639Z,967.00
2023-04-16T02:30:42.523Z,967.03
2023-04-16T02:31:42.604Z,967.03
2023-04-16T02:32:42.554Z,967.08
2023-04-16T02:33:42.684Z,967.07
2023-04-16T02:34:42.445Z,967.06
2023-04-16T02:35:42.500Z,967.08
2023-04-16T02:36:42.425Z,967.09
2023-04-16T02:37:42.581Z,967.10
2023-04-16T02:38:42.463Z,967.06
2023-04-16T02:39:42.528Z,967.07
2023-04-16T02:40:42.380Z,967.07
2023-04-16T02:41:42.424Z,967.05
2023-04-16T02:42:42.401Z,967.08
2023-04-16T02:43:42.472Z,967.08
2023-04-16T02:44:42.316Z,967.11
2023-04-16T02:45:42.464Z,967.09
2023-04-16T02:46:42.289Z,967.09
2023-04-16T02:47:42.535Z,967.11
2023-04-16T02:48:42.266Z,967.09
2023-04-16T02:49:42.464Z,967.08
2023-04-16T02:50:42.235Z,967.10
2023-04-16T02:51:42.279Z,967.06
2023-04-16T02:52:42.218Z,967.08
2023-04-16T02:53:42.445Z,967.08
2023-04-16T02:54:42.330Z,967.07
2023-04-16T02:55:42.173Z,967.08
2023-04-16T02:56:42.314Z,967.08
2023-04-16T02:57:42.123Z,967.09
2023-04-16T02:58:42.282Z,967.08
2023-04-16T02:59:42.352Z,967.09
2023-04-16T03:00:42.130Z,967.08
2023-04-16T03:01:42.233Z,967.11
2023-04-16T03:02:42.153Z,967.12
2023-04-16T03:03:42.202Z,967.12
2023-04-16T03:04:42.113Z,967.11
2023-04-16T03:05:42.173Z,967.13
2023-04-16T03:06:42.042Z,967.11
2023-04-16T03:07:42.083Z,967.11
2023-04-16T03:08:42.026Z,967.13
2023-04-16T03:09:42.163Z,967.13
2023-04-16T03:10:42.014Z,967.12
2023-04-16T03:11:42.596Z,967.12
2023-04-16T03:12:41.962Z,967.13
2023-04-16T03:13:42.118Z,967.15
2023-04-16T03:14:41.952Z,967.11
2023-04-16T03:15:42.084Z,967.16
2023-04-16T03:16:41.911Z,967.14
2023-04-16T03:17:42.074Z,967.13
2023-04-16T03:18:41.891Z,967.15
2023-04-16T03:19:42.059Z,967.14
2023-04-16T03:20:42.030Z,967.19
2023-04-16T03:21:41.852Z,967.14
2023-04-16T03:22:41.963Z,967.16
2023-04-16T03:23:41.806Z,967.18
2023-04-16T03:24:42.008Z,967.19
2023-04-16T03:25:41.906Z,967.20
2023-04-16T03:26:41.793Z,967.16
2023-04-16T03:27:42.060Z,967.18
2023-04-16T03:28:41.809Z,967.19
2023-04-16T03:29:41.932Z,967.18
2023-04-16T03:30:41.839Z,967.19
2023-04-16T03:31:41.778Z,967.16
2023-04-16T03:32:41.915Z,967.19
2023-04-16T03:33:41.710Z,967.18
2023-04-16T03:34:42.014Z,967.20
2023-04-16T03:35:41.783Z,967.24
2023-04-16T03:36:41.714Z,967.21
2023-04-16T03:37:41.788Z,967.24
2023-04-16T03:38:41.688Z,967.24
2023-04-16T03:39:41.789Z,967.23
2023-04-16T03:40:41.632Z,967.23
2023-04-16T03:41:41.714Z,967.24
2023-04-16T03:42:41.603Z,967.23
2023-04-16T03:43:41.759Z,967.25
2023-04-16T03:44:41.581Z,967.22
2023-04-16T03:45:41.737Z,967.23
2023-04-16T03:46:41.598Z,967.21
2023-04-16T03:47:41.680Z,967.23
2023-04-16T03:48:41.520Z,967.25
2023-04-16T03:49:41.718Z,967.25
2023-04-16T03:50:41.494Z,967.22
2023-04-16T03:51:41.579Z,967.22
2023-04-16T03:52:41.473Z,967.26
2023-04-16T03:53:41.603Z,967.26
2023-04-16T03:54:41.451Z,967.24
2023-04-16T03:55:41.679Z,967.27
2023-04-16T03:56:41.629Z,967.22
2023-04-16T03:57:41.398Z,967.23
2023-04-16T03:58:41.654Z,967.24
2023-04-16T03:59:41.351Z,967.24
2023-04-16T04:00:41.398Z,967.26
2023-04-16T04:01:41.458Z,967.24
2023-04-16T04:02:41.662Z,967.26
2023-04-16T04:03:41.636Z,967.27
2023-04-16T04:04:41.412Z,967.25
2023-04-16T04:05:41.399Z,967.22
2023-04-16T04:06:41.561Z,967.26
2023-04-16T04:07:41.256Z,967.26
2023-04-16T04:08:41.427Z,967.27
2023-04-16T04:09:41.226Z,967.26
2023-04-16T04:10:41.476Z,967.27
2023-04-16T04:11:41.410Z,967.23
2023-04-16T04:12:41.219Z,967.24
2023-04-16T04:13:41.353Z,967.25
2023-04-16T04:14:41.194Z,967.28
2023-04-16T04:15:41.297Z,967.29
2023-04-16T04:16:41.429Z,967.27
2023-04-16T04:17:41.382Z,967.30
2023-04-16T04:18:42.721Z,967.28
2023-04-16T04:19:47.229Z,967.28
2023-04-16T04:20:41.123Z,967.31
2023-04-16T04:21:41.521Z,967.33
2023-04-16T04:22:41.113Z,967.33
2023-04-16T04:23:41.185Z,967.31
2023-04-16T04:24:41.065Z,967.37
2023-04-16T04:25:42.058Z,967.36
2023-04-16T04:26:41.540Z,967.40
2023-04-16T04:27:41.210Z,967.39
2023-04-16T04:28:41.028Z,967.41
2023-04-16T04:29:41.127Z,967.42
2023-04-16T04:30:41.007Z,967.44
2023-04-16T04:31:41.171Z,967.48
2023-04-16T04:32:41.030Z,967.48
2023-04-16T04:33:41.069Z,967.46
2023-04-16T04:34:40.976Z,967.52
2023-04-16T04:35:41.069Z,967.49
2023-04-16T04:36:40.956Z,967.52
2023-04-16T04:37:41.115Z,967.52
2023-04-16T04:38:40.920Z,967.52
2023-04-16T04:39:41.013Z,967.53
2023-04-16T04:40:40.867Z,967.54
2023-04-16T04:41:41.001Z,967.57
2023-04-16T04:42:40.976Z,967.57
2023-04-16T04:43:41.614Z,967.57
2023-04-16T04:44:40.946Z,967.60
2023-04-16T04:45:40.849Z,967.59
2023-04-16T04:46:41.063Z,967.57
2023-04-16T04:47:40.893Z,967.57
2023-04-16T04:48:40.798Z,967.58
2023-04-16T04:49:40.859Z,967.62
2023-04-16T04:50:40.761Z,967.64
2023-04-16T04:51:40.882Z,967.63
2023-04-16T04:52:40.714Z,967.63
2023-04-16T04:53:40.823Z,967.64
2023-04-16T04:54:40.693Z,967.65
2023-04-16T04:55:40.908Z,967.65
2023-04-16T04:56:40.717Z,967.65
2023-04-16T04:57:40.908Z,967.65
2023-04-16T04:58:40.676Z,967.71
2023-04-16T04:59:40.731Z,967.70
2023-04-16T05:00:40.638Z,967.70
2023-04-16T05:01:40.794Z,967.72
2023-04-16T05:02:40.763Z,967.73
2023-04-16T05:03:40.715Z,967.73
2023-04-16T05:04:40.588Z,967.77
2023-04-16T05:05:40.676Z,967.77
2023-04-16T05:06:40.555Z,967.73
2023-04-16T05:07:40.697Z,967.75
2023-04-16T05:08:40.701Z,967.79
2023-04-16T05:09:40.544Z,967.81
2023-04-16T05:10:40.612Z,967.81
2023-04-16T05:11:40.483Z,967.82
2023-04-16T05:12:40.637Z,967.83
2023-04-16T05:13:40.465Z,967.79
2023-04-16T05:14:40.625Z,967.82
2023-04-16T05:15:40.465Z,967.85
2023-04-16T05:16:40.621Z,967.86
2023-04-16T05:17:40.430Z,967.88
2023-04-16T05:18:40.654Z,967.89
2023-04-16T05:19:40.371Z,967.93
2023-04-16T05:20:40.603Z,967.93
2023-04-16T05:21:40.367Z,967.93
2023-04-16T05:22:40.578Z,967.96
2023-04-16T05:23:40.521Z,967.96
2023-04-16T05:24:40.315Z,967.96
2023-04-16T05:25:40.467Z,968.01
2023-04-16T05:26:40.272Z,967.99
2023-04-16T05:27:40.428Z,967.96
2023-04-16T05:28:40.249Z,967.98
2023-04-16T05:29:40.555Z,968.00
2023-04-16T05:30:40.388Z,968.03
2023-04-16T05:31:40.363Z,968.03
2023-04-16T05:32:40.260Z,968.03
2023-04-16T05:33:40.377Z,968.06
2023-04-16T05:34:40.170Z,968.05
2023-04-16T05:35:40.284Z,968.07
2023-04-16T05:36:40.132Z,968.09
2023-04-16T05:37:40.340Z,968.07
2023-04-16T05:38:40.114Z,968.10
2023-04-16T05:39:40.422Z,968.08
2023-04-16T05:40:40.113Z,968.13
2023-04-16T05:41:40.225Z,968.13
2023-04-16T05:42:40.073Z,968.14
2023-04-16T05:43:40.286Z,968.14
2023-04-16T05:44:40.051Z,968.14
2023-04-16T05:45:40.238Z,968.14
2023-04-16T05:46:40.092Z,968.18
2023-04-16T05:47:40.168Z,968.18
2023-04-16T05:48:39.990Z,968.18
2023-04-16T05:49:41.075Z,968.17
2023-04-16T05:50:39.969Z,968.17
2023-04-16T05:51:40.178Z,968.18
2023-04-16T05:52:39.998Z,968.20
2023-04-16T05:53:40.122Z,968.27
2023-04-16T05:54:40.091Z,968.24
2023-04-16T05:55:39.922Z,968.23
2023-04-16T05:56:39.995Z,968.29
2023-04-16T05:57:39.903Z,968.27
2023-04-16T05:58:40.087Z,968.29
2023-04-16T05:59:40.048Z,968.28
2023-04-16T06:00:39.826Z,968.30
2023-04-16T06:01:39.968Z,968.28
2023-04-16T06:02:39.905Z,968.30
2023-04-16T06:03:40.209Z,968.32
2023-04-16T06:04:39.843Z,968.33
2023-04-16T06:05:40.021Z,968.33
2023-04-16T06:06:39.798Z,968.34
2023-04-16T06:07:39.914Z,968.36
2023-04-16T06:08:39.745Z,968.38
2023-04-16T06:09:39.966Z,968.36
2023-04-16T06:10:39.715Z,968.41
2023-04-16T06:11:39.939Z,968.37
2023-04-16T06:12:39.703Z,968.36
2023-04-16T06:13:39.924Z,968.44
2023-04-16T06:14:39.677Z,968.40
2023-04-16T06:15:40.055Z,968.45
2023-04-16T06:16:39.660Z,968.42
2023-04-16T06:17:39.934Z,968.44
2023-04-16T06:18:39.687Z,968.45
2023-04-16T06:19:39.916Z,968.39
2023-04-16T06:20:39.632Z,968.41
2023-04-16T06:21:39.792Z,968.44
2023-04-16T06:22:39.562Z,968.44
2023-04-16T06:23:39.804Z,968.44
2023-04-16T06:24:39.539Z,968.44
2023-04-16T06:25:39.870Z,968.44
2023-04-16T06:26:39.559Z,968.43
2023-04-16T06:27:39.824Z,968.44
2023-04-16T06:28:39.484Z,968.36
2023-04-16T06:29:41.391Z,968.42
2023-04-16T06:30:39.669Z,968.41
2023-04-16T06:31:39.506Z,968.41
2023-04-16T06:32:39.665Z,968.39
2023-04-16T06:33:39.447Z,968.47
2023-04-16T06:34:39.566Z,968.42
2023-04-16T06:35:39.849Z,968.44
2023-04-16T06:36:39.425Z,968.47
2023-04-16T06:37:39.607Z,968.45
2023-04-16T06:38:39.366Z,968.46
2023-04-16T06:39:39.509Z,968.47
2023-04-16T06:40:39.340Z,968.44
2023-04-16T06:41:39.554Z,968.49
2023-04-16T06:42:39.313Z,968.41
2023-04-16T06:43:39.513Z,968.49
2023-04-16T06:44:39.305Z,968.47
2023-04-16T06:45:39.707Z,968.48
2023-04-16T06:46:39.324Z,968.47
2023-04-16T06:47:39.578Z,968.48
2023-04-16T06:48:39.230Z,968.50
2023-04-16T06:49:39.484Z,968.51
2023-04-16T06:50:39.215Z,968.47
2023-04-16T06:51:39.378Z,968.48
2023-04-16T06:52:39.208Z,968.48
2023-04-16T06:53:39.501Z,968.52
2023-04-16T06:54:39.155Z,968.54
2023-04-16T06:55:39.313Z,968.58
2023-04-16T06:56:39.301Z,968.56
2023-04-16T06:57:39.183Z,968.58
2023-04-16T06:58:39.248Z,968.61
2023-04-16T06:59:39.127Z,968.63
2023-04-16T07:00:39.233Z,968.59
2023-04-16T07:01:39.245Z,968.64
2023-04-16T07:02:39.214Z,968.63
2023-04-16T07:03:39.468Z,968.62
2023-04-16T07:04:39.051Z,968.61
2023-04-16T07:05:39.271Z,968.65
2023-04-16T07:06:39.170Z,968.73
2023-04-16T07:07:39.018Z,968.68
2023-04-16T07:08:39.315Z,968.66
2023-04-16T07:09:38.993Z,968.70
2023-04-16T07:10:39.111Z,968.71
2023-04-16T07:11:39.623Z,968.65
2023-04-16T07:12:38.941Z,968.73
2023-04-16T07:13:39.168Z,968.69
2023-04-16T07:14:38.910Z,968.69
2023-04-16T07:15:39.113Z,968.72
2023-04-16T07:16:38.951Z,968.71
2023-04-16T07:17:39.130Z,968.69
2023-04-16T07:18:38.867Z,968.69
2023-04-16T07:19:39.014Z,968.70
2023-04-16T07:20:38.872Z,968.70
2023-04-16T07:21:39.072Z,968.68
2023-04-16T07:22:38.824Z,968.69
2023-04-16T07:23:39.093Z,968.68
2023-04-16T07:24:38.824Z,968.68
2023-04-16T07:25:38.927Z,968.70
2023-04-16T07:26:38.790Z,968.69
2023-04-16T07:27:39.014Z,968.74
2023-04-16T07:28:38.760Z,968.72
2023-04-16T07:29:38.994Z,968.78
2023-04-16T07:30:38.712Z,968.75
2023-04-16T07:31:38.961Z,968.76
2023-04-16T07:32:38.896Z,968.74
2023-04-16T07:33:38.699Z,968.77
2023-04-16T07:34:38.972Z,968.79
2023-04-16T07:35:38.678Z,968.79
2023-04-16T07:36:38.813Z,968.79
2023-04-16T07:37:38.792Z,968.83
2023-04-16T07:38:38.607Z,968.77
2023-04-16T07:39:38.820Z,968.81
2023-04-16T07:40:38.629Z,968.82
2023-04-16T07:41:38.833Z,968.87
2023-04-16T07:42:38.815Z,968.84
2023-04-16T07:43:38.575Z,968.84
2023-04-16T07:44:38.762Z,968.85
2023-04-16T07:45:38.601Z,968.91
2023-04-16T07:46:46.924Z,968.86
2023-04-16T07:47:38.619Z,968.89
2023-04-16T07:48:38.655Z,968.90
2023-04-16T07:49:38.539Z,968.91
2023-04-16T07:50:39.705Z,968.90
2023-04-16T07:51:38.504Z,968.93
2023-04-16T07:52:38.694Z,968.93
2023-04-16T07:53:38.461Z,968.93
2023-04-16T07:54:38.689Z,968.94
2023-04-16T07:55:38.433Z,968.95
2023-04-16T07:56:38.555Z,969.01
2023-04-16T07:57:38.407Z,968.93
2023-04-16T07:58:38.543Z,969.00
2023-04-16T07:59:38.388Z,969.04
2023-04-16T08:00:38.531Z,968.99
2023-04-16T08:01:38.410Z,969.01
2023-04-16T08:02:39.547Z,969.06
2023-04-16T08:03:38.734Z,969.04
2023-04-16T08:04:38.561Z,969.03
2023-04-16T08:05:38.584Z,969.04
2023-04-16T08:06:38.347Z,969.07
2023-04-16T08:07:38.758Z,969.12
2023-04-16T08:08:38.291Z,969.11
2023-04-16T08:09:39.361Z,969.12
2023-04-16T08:10:38.392Z,969.10
2023-04-16T08:11:38.232Z,969.12
2023-04-16T08:12:38.524Z,969.12
2023-04-16T08:13:38.434Z,969.13
2023-04-16T08:14:38.187Z,969.17
2023-04-16T08:15:38.333Z,969.18
2023-04-16T08:16:38.131Z,969.23
2023-04-16T08:17:38.577Z,969.24
2023-04-16T08:18:38.155Z,969.24
2023-04-16T08:19:38.822Z,969.25
2023-04-16T08:20:38.104Z,969.27
2023-04-16T08:21:38.288Z,969.27
2023-04-16T08:22:38.065Z,969.28
2023-04-16T08:23:38.223Z,969.30
2023-04-16T08:24:38.228Z,969.29
2023-04-16T08:25:38.322Z,969.32
2023-04-16T08:26:38.013Z,969.31
2023-04-16T08:27:38.218Z,969.33
2023-04-16T08:28:37.991Z,969.38
2023-04-16T08:29:38.181Z,969.37
2023-04-16T08:30:37.960Z,969.41
2023-04-16T08:31:38.068Z,969.41
2023-04-16T08:32:37.956Z,969.40
2023-04-16T08:33:38.158Z,969.40
2023-04-16T08:34:37.955Z,969.46
2023-04-16T08:35:38.008Z,969.46
2023-04-16T08:36:37.882Z,969.45
2023-04-16T08:37:38.079Z,969.45
2023-04-16T08:38:37.859Z,969.45
2023-04-16T08:39:37.962Z,969.44
2023-04-16T08:40:37.867Z,969.45
2023-04-16T08:41:37.907Z,969.46
2023-04-16T08:42:37.815Z,969.48
2023-04-16T08:43:38.040Z,969.47
2023-04-16T08:44:37.964Z,969.47
2023-04-16T08:45:37.788Z,969.49
2023-04-16T08:46:38.002Z,969.55
2023-04-16T08:47:37.825Z,969.54
2023-04-16T08:48:37.842Z,969.49
2023-04-16T08:49:37.740Z,969.52
2023-04-16T08:50:37.933Z,969.52
2023-04-16T08:51:37.721Z,969.54
2023-04-16T08:52:37.886Z,969.54
2023-04-16T08:53:37.706Z,969.57
2023-04-16T08:54:37.882Z,969.55
2023-04-16T08:55:37.770Z,969.58
2023-04-16T08:56:37.732Z,969.58
2023-04-16T08:57:37.706Z,969.56
2023-04-16T08:58:37.736Z,969.57
2023-04-16T08:59:37.636Z,969.58
2023-04-16T09:00:37.703Z,969.60
2023-04-16T09:01:37.736Z,969.58
2023-04-16T09:02:38.205Z,969.61
2023-04-16T09:03:37.774Z,969.60
2023-04-16T09:04:37.793Z,969.64
2023-04-16T09:05:37.597Z,969.65
2023-04-16T09:06:37.602Z,969.67
2023-04-16T09:07:37.611Z,969.66
2023-04-16T09:08:37.669Z,969.63
2023-04-16T09:09:37.504Z,969.67
2023-04-16T09:10:37.584Z,969.68
2023-04-16T09:11:37.479Z,969.69
2023-04-16T09:12:37.597Z,969.65
2023-04-16T09:13:37.526Z,969.72
2023-04-16T09:14:37.630Z,969.70
2023-04-16T09:15:37.538Z,969.72
2023-04-16T09:16:37.416Z,969.73
2023-04-16T09:17:37.477Z,969.74
2023-04-16T09:18:37.409Z,969.76
2023-04-16T09:19:37.447Z,969.75
2023-04-16T09:20:37.452Z,969.79
2023-04-16T09:21:37.319Z,969.76
2023-04-16T09:22:37.437Z,969.79
2023-04-16T09:23:37.398Z,969.77
2023-04-16T09:24:37.496Z,969.77
2023-04-16T09:25:37.288Z,969.80
2023-04-16T09:26:37.497Z,969.79
2023-04-16T09:27:37.249Z,969.80
2023-04-16T09:28:37.376Z,969.80
2023-04-16T09:29:37.246Z,969.77
2023-04-16T09:30:37.353Z,969.80
2023-04-16T09:31:37.237Z,969.81
2023-04-16T09:32:37.348Z,969.82
2023-04-16T09:33:37.210Z,969.81
2023-04-16T09:34:43.411Z,969.80
2023-04-16T09:35:37.151Z,969.78
2023-04-16T09:36:37.288Z,969.83
2023-04-16T09:37:37.135Z,969.84
2023-04-16T09:38:37.235Z,969.84
2023-04-16T09:39:37.102Z,969.88
2023-04-16T09:40:37.277Z,969.86
2023-04-16T09:41:37.117Z,969.83
2023-04-16T09:42:37.457Z,969.84
2023-04-16T09:43:37.120Z,969.88
2023-04-16T09:44:37.298Z,969.84
2023-04-16T09:45:37.127Z,969.86
2023-04-16T09:46:37.145Z,969.89
2023-04-16T09:47:37.041Z,969.87
2023-04-16T09:48:37.168Z,969.89
2023-04-16T09:49:37.021Z,969.93
2023-04-16T09:50:38.566Z,969.92
2023-04-16T09:51:37.060Z,969.95
2023-04-16T09:52:36.965Z,969.90
2023-04-16T09:53:37.006Z,969.94
2023-04-16T09:54:37.048Z,969.92
2023-04-16T09:55:37.088Z,969.95
2023-04-16T09:56:36.984Z,969.93
2023-04-16T09:57:37.131Z,969.93
2023-04-16T09:58:36.948Z,969.93
2023-04-16T09:59:36.916Z,969.93
2023-04-16T10:00:36.846Z,969.96
2023-04-16T10:01:36.937Z,970.01
2023-04-16T10:02:38.149Z,969.97
2023-04-16T10:03:37.217Z,969.99
2023-04-16T10:04:37.103Z,969.98
2023-04-16T10:05:36.838Z,970.02
2023-04-16T10:06:37.925Z,969.98
2023-04-16T10:07:36.971Z,970.05
2023-04-16T10:08:37.079Z,970.02
2023-04-16T10:09:36.767Z,970.04
2023-04-16T10:10:36.982Z,970.07
2023-04-16T10:11:36.862Z,970.04
2023-04-16T10:12:36.957Z,970.03
2023-04-16T10:13:36.704Z,970.06
2023-04-16T10:14:37.147Z,970.08
2023-04-16T10:15:36.777Z,970.05
2023-04-16T10:16:36.913Z,970.06
2023-04-16T10:17:36.821Z,970.05
2023-04-16T10:18:36.886Z,970.08
2023-04-16T10:19:36.859Z,970.07
2023-04-16T10:20:36.662Z,970.08
2023-04-16T10:21:36.803Z,970.07
2023-04-16T10:22:36.698Z,970.11
2023-04-16T10:23:36.697Z,970.13
2023-04-16T10:24:37.696Z,970.13
2023-04-16T10:25:36.549Z,970.14
2023-04-16T10:26:36.654Z,970.15
2023-04-16T10:27:36.593Z,970.16
2023-04-16T10:28:36.873Z,970.20
2023-04-16T10:29:36.581Z,970.19
2023-04-16T10:30:36.561Z,970.13
2023-04-16T10:31:36.506Z,970.21
2023-04-16T10:32:36.629Z,970.20
2023-04-16T10:33:36.485Z,970.16
2023-04-16T10:34:36.564Z,970.16
2023-04-16T10:35:36.456Z,970.16
2023-04-16T10:36:36.610Z,970.22
2023-04-16T10:37:37.161Z,970.17
2023-04-16T10:38:36.560Z,970.19
2023-04-16T10:39:36.346Z,970.24
2023-04-16T10:40:36.497Z,970.23
2023-04-16T10:41:36.315Z,970.20
2023-04-16T10:42:36.417Z,970.18
2023-04-16T10:43:36.478Z,970.23
2023-04-16T10:44:36.334Z,970.24
2023-04-16T10:45:36.474Z,970.21
2023-04-16T10:46:36.492Z,970.22
2023-04-16T10:47:36.392Z,970.22
2023-04-16T10:48:46.705Z,970.25
2023-04-16T10:49:36.307Z,970.20
2023-04-16T10:50:36.412Z,970.23
2023-04-16T10:51:36.201Z,970.22
2023-04-16T10:52:36.471Z,970.24
2023-04-16T10:53:36.235Z,970.23
2023-04-16T10:54:36.366Z,970.21
2023-04-16T10:55:36.131Z,970.22
2023-04-16T10:56:36.202Z,970.19
2023-04-16T10:57:36.108Z,970.25
2023-04-16T10:58:36.331Z,970.21
2023-04-16T10:59:36.114Z,970.19
2023-04-16T11:00:36.301Z,970.19
2023-04-16T11:01:36.155Z,970.19
2023-04-16T11:02:36.345Z,970.21
2023-04-16T11:03:36.159Z,970.23
2023-04-16T11:04:36.255Z,970.21
2023-04-16T11:05:36.415Z,970.24
2023-04-16T11:06:36.121Z,970.23
2023-04-16T11:07:36.087Z,970.22
2023-04-16T11:08:44.314Z,970.23
2023-04-16T11:09:36.043Z,970.25
2023-04-16T11:10:36.225Z,970.22
2023-04-16T11:11:35.947Z,970.24
2023-04-16T11:12:36.014Z,970.24
2023-04-16T11:13:35.913Z,970.21
2023-04-16T11:14:36.129Z,970.27
2023-04-16T11:15:36.010Z,970.28
2023-04-16T11:16:36.026Z,970.27
2023-04-16T11:17:35.967Z,970.26
2023-04-16T11:18:36.194Z,970.26
2023-04-16T11:19:35.941Z,970.28
2023-04-16T11:20:35.898Z,970.27
2023-04-16T11:21:35.973Z,970.29
2023-04-16T11:22:35.859Z,970.28
2023-04-16T11:23:36.011Z,970.27
2023-04-16T11:24:35.827Z,970.28
2023-04-16T11:25:36.016Z,970.29
2023-04-16T11:26:35.796Z,970.31
2023-04-16T11:27:35.888Z,970.28
2023-04-16T11:28:35.845Z,970.33
2023-04-16T11:29:35.798Z,970.35
2023-04-16T11:30:35.754Z,970.34
2023-04-16T11:31:35.869Z,970.32
2023-04-16T11:32:35.702Z,970.31
2023-04-16T11:33:35.872Z,970.34
2023-04-16T11:34:35.655Z,970.30
2023-04-16T11:35:35.743Z,970.34
2023-04-16T11:36:35.668Z,970.31
2023-04-16T11:37:35.760Z,970.38
2023-04-16T11:38:35.657Z,970.34
2023-04-16T11:39:35.842Z,970.39
2023-04-16T11:40:35.662Z,970.36
2023-04-16T11:41:35.859Z,970.38
2023-04-16T11:42:35.634Z,970.36
2023-04-16T11:43:35.716Z,970.34
2023-04-16T11:44:35.621Z,970.35
2023-04-16T11:45:35.717Z,970.34
2023-04-16T11:46:35.572Z,970.34
2023-04-16T11:47:35.866Z,970.34
2023-04-16T11:48:35.611Z,970.33
2023-04-16T11:49:35.644Z,970.35
2023-04-16T11:50:35.638Z,970.35
2023-04-16T11:51:35.589Z,970.37
2023-04-16T11:52:35.617Z,970.36
2023-04-16T11:53:35.489Z,970.37
2023-04-16T11:54:35.674Z,970.37
2023-04-16T11:55:35.372Z,970.36
2023-04-16T11:56:35.596Z,970.38
2023-04-16T11:57:35.353Z,970.37
2023-04-16T11:58:36.140Z,970.37
2023-04-16T11:59:35.375Z,970.39
2023-04-16T12:00:35.468Z,970.39
2023-04-16T12:01:35.416Z,970.39
2023-04-16T12:02:35.706Z,970.40
2023-04-16T12:03:35.446Z,970.41
2023-04-16T12:04:35.512Z,970.41
2023-04-16T12:05:36.091Z,970.44
2023-04-16T12:06:35.509Z,970.41
2023-04-16T12:07:35.265Z,970.44
2023-04-16T12:08:35.491Z,970.46
2023-04-16T12:09:37.160Z,970.42
2023-04-16T12:10:35.427Z,970.46
2023-04-16T12:11:35.591Z,970.42
2023-04-16T12:12:35.790Z,970.44
2023-04-16T12:13:35.197Z,970.43
2023-04-16T12:14:35.384Z,970.45
2023-04-16T12:15:35.211Z,970.42
2023-04-16T12:16:36.004Z,970.44
2023-04-16T12:17:35.280Z,970.45
2023-04-16T12:18:35.248Z,970.43
2023-04-16T12:19:35.101Z,970.45
2023-04-16T12:20:35.362Z,970.45
2023-04-16T12:21:35.144Z,970.43
2023-04-16T12:22:36.850Z,970.45
2023-04-16T12:23:35.071Z,970.45
2023-04-16T12:24:35.198Z,970.45
2023-04-16T12:25:35.015Z,970.47
2023-04-16T12:26:35.208Z,970.47
2023-04-16T12:27:35.048Z,970.45
2023-04-16T12:28:35.156Z,970.47